Time;durP1;ratioP1;P1;durP2;ratioP2;P2;SDS_P1;SDS_P2;PMS_P1;PMS_P2;Temp;Humidity;BMP_temperature;BMP_pressure;BME280_temperature;BME280_humidity;BME280_pressure;Samples;Min_cycle;Max_cycle;Signal;HPM_P1;HPM_P2
2024/04/14 00:01:52;;;;;;;44.83;3.97;;;17.80;90.90;;;;;;5550525;25;20001;-76
2024/04/14 00:04:18;;;;;;;256.27;9.20;;;17.80;90.90;;;;;;5526748;25;20008;-76
2024/04/14 00:06:44;;;;;;;61.78;3.65;;;17.80;90.70;;;;;;5545036;25;20067;-76
2024/04/14 00:09:10;;;;;;;167.60;4.47;;;17.80;90.80;;;;;;5554143;25;19996;-76
2024/04/14 00:11:36;;;;;;;10.27;2.20;;;17.80;90.70;;;;;;5550124;25;20027;-76
2024/04/14 00:14:02;;;;;;;153.75;8.43;;;17.80;90.70;;;;;;5554114;25;20012;-76
2024/04/14 00:16:27;;;;;;;49.45;3.97;;;17.80;90.50;;;;;;5537248;25;20037;-76
2024/04/14 00:18:53;;;;;;;14.15;2.35;;;17.70;90.50;;;;;;5540336;25;20072;-76
2024/04/14 00:21:22;;;;;;;16.48;2.25;;;17.60;90.50;;;;;;5553186;25;20008;-76
2024/04/14 00:23:48;;;;;;;101.57;4.80;;;17.60;90.40;;;;;;5529973;25;20053;-76
2024/04/14 00:26:14;;;;;;;12.07;2.10;;;17.70;90.40;;;;;;5528693;25;20001;-76
2024/04/14 00:28:40;;;;;;;18.08;2.38;;;17.60;90.40;;;;;;5533408;25;20332;-76
2024/04/14 00:31:06;;;;;;;11.52;2.15;;;17.70;90.40;;;;;;5549556;25;20041;-76
2024/04/14 00:33:34;;;;;;;54.50;3.47;;;17.70;90.30;;;;;;5543238;25;20000;-76
2024/04/14 00:36:04;;;;;;;10.43;1.90;;;17.70;90.20;;;;;;5532953;25;20041;-76
2024/04/14 00:38:30;;;;;;;14.25;2.60;;;17.70;90.20;;;;;;5531901;25;20012;-76
2024/04/14 00:40:56;;;;;;;11.32;2.85;;;17.70;90.10;;;;;;5543920;25;20012;-76
2024/04/14 00:43:22;;;;;;;9.25;2.00;;;17.70;90.10;;;;;;5550432;25;20456;-76
2024/04/14 00:45:47;;;;;;;49.28;3.95;;;17.70;90.10;;;;;;5549691;25;20007;-76
2024/04/14 00:48:14;;;;;;;7.60;1.90;;;17.70;90.00;;;;;;5554626;25;20048;-76
2024/04/14 00:50:45;;;;;;;11.25;1.90;;;17.70;90.00;;;;;;5550104;25;20097;-76
2024/04/14 00:53:11;;;;;;;12.93;2.58;;;17.70;90.00;;;;;;5540818;25;20064;-76
2024/04/14 00:55:38;;;;;;;10.00;1.80;;;17.60;89.60;;;;;;5550325;25;20012;-76
2024/04/14 00:58:05;;;;;;;10.32;1.92;;;17.60;89.50;;;;;;5540168;25;20008;-76
2024/04/14 01:00:33;;;;;;;21.13;2.30;;;17.60;89.90;;;;;;5550780;25;20001;-76
2024/04/14 01:02:59;;;;;;;53.13;3.67;;;17.60;90.00;;;;;;5556860;25;20001;-76
2024/04/14 01:05:25;;;;;;;13.40;2.40;;;17.60;89.40;;;;;;5547763;25;20006;-76
2024/04/14 01:07:53;;;;;;;11.70;2.25;;;17.50;89.30;;;;;;5546136;25;20515;-76
2024/04/14 01:10:20;;;;;;;61.47;3.78;;;17.50;88.80;;;;;;5555544;25;20004;-76
2024/04/14 01:12:46;;;;;;;11.43;2.10;;;17.50;88.90;;;;;;5542629;25;20005;-76
2024/04/14 01:15:11;;;;;;;12.80;1.77;;;17.40;88.70;;;;;;5527964;25;20015;-76
2024/04/14 01:17:37;;;;;;;14.18;2.05;;;17.40;88.70;;;;;;5528753;25;20000;-76
2024/04/14 01:20:04;;;;;;;16.67;2.30;;;17.40;88.60;;;;;;5552938;25;20033;-76
2024/04/14 01:22:29;;;;;;;43.30;3.92;;;17.30;88.30;;;;;;5521793;25;20018;-76
2024/04/14 01:25:06;;;;;;;12.38;2.55;;;17.30;88.40;;;;;;5535901;25;19993;-76
2024/04/14 01:27:33;;;;;;;14.60;2.13;;;17.20;88.20;;;;;;5539585;25;19992;-76
2024/04/14 01:29:59;;;;;;;18.88;2.20;;;17.20;88.40;;;;;;5545684;25;20019;-76
2024/04/14 01:32:24;;;;;;;94.18;6.00;;;17.10;88.20;;;;;;5544851;25;20049;-76
2024/04/14 01:34:50;;;;;;;9.98;1.85;;;17.10;88.30;;;;;;5551859;25;20000;-76
2024/04/14 01:37:16;;;;;;;55.95;2.85;;;17.10;88.20;;;;;;5546647;25;20542;-76
2024/04/14 01:39:41;;;;;;;400.70;13.02;;;17.00;88.10;;;;;;5550147;25;20034;-76
2024/04/14 01:42:07;;;;;;;410.00;21.05;;;16.90;87.60;;;;;;5532720;25;20907;-76
2024/04/14 01:44:33;;;;;;;66.68;4.18;;;16.90;87.80;;;;;;5539716;25;23109;-76
2024/04/14 01:46:59;;;;;;;10.77;2.38;;;16.80;87.80;;;;;;5547093;25;20000;-76
2024/04/14 01:49:25;;;;;;;85.10;4.07;;;16.70;87.50;;;;;;5550459;25;20451;-76
2024/04/14 01:51:50;;;;;;;106.53;6.63;;;16.70;87.50;;;;;;5554373;25;20432;-77
2024/04/14 01:54:16;;;;;;;9.10;1.42;;;16.60;87.10;;;;;;5533152;25;20012;-75
2024/04/14 01:56:42;;;;;;;85.95;8.85;;;16.50;86.90;;;;;;5549905;25;20005;-75
2024/04/14 01:59:07;;;;;;;69.50;3.97;;;16.40;87.30;;;;;;5553114;25;20126;-75
2024/04/14 02:01:33;;;;;;;157.00;12.95;;;16.30;87.00;;;;;;5547628;25;20029;-76
2024/04/14 02:03:59;;;;;;;87.30;36.65;;;16.20;86.80;;;;;;5556590;25;20040;-75
2024/04/14 02:06:24;;;;;;;12.30;1.85;;;16.20;85.70;;;;;;5542407;25;20337;-75
2024/04/14 02:08:53;;;;;;;58.72;3.92;;;16.10;86.40;;;;;;5534854;25;19994;-75
2024/04/14 02:11:19;;;;;;;68.15;3.33;;;16.10;86.50;;;;;;5543679;25;20504;-75
2024/04/14 02:13:44;;;;;;;52.90;4.05;;;16.10;86.60;;;;;;5537097;25;19993;-75
2024/04/14 02:16:10;;;;;;;13.27;1.83;;;16.10;86.80;;;;;;5530663;25;20008;-75
2024/04/14 02:18:36;;;;;;;103.70;23.08;;;16.00;86.60;;;;;;5537214;25;20000;-75
2024/04/14 02:21:02;;;;;;;106.13;6.93;;;16.00;86.70;;;;;;5535561;25;20462;-75
2024/04/14 02:23:29;;;;;;;86.05;4.80;;;16.00;86.30;;;;;;5530745;25;20007;-75
2024/04/14 02:25:59;;;;;;;11.65;1.73;;;16.10;86.50;;;;;;5539607;25;20024;-75
2024/04/14 02:28:25;;;;;;;11.63;2.05;;;16.00;86.00;;;;;;5529389;25;20012;-75
2024/04/14 02:30:51;;;;;;;15.77;2.00;;;16.00;85.90;;;;;;5549122;25;20041;-75
2024/04/14 02:33:17;;;;;;;7.75;2.10;;;16.00;85.70;;;;;;5552216;25;20451;-75
2024/04/14 02:35:58;;;;;;;325.00;12.90;;;16.00;85.50;;;;;;5550971;25;20036;-75
2024/04/14 02:38:24;;;;;;;62.53;4.40;;;16.00;85.60;;;;;;5546057;25;19997;-75
2024/04/14 02:41:02;;;;;;;68.07;4.15;;;16.00;85.50;;;;;;5547572;25;19993;-76
2024/04/14 02:43:29;;;;;;;47.05;3.75;;;15.90;85.30;;;;;;5535632;25;20004;-76
2024/04/14 02:45:55;;;;;;;15.40;2.13;;;15.90;85.20;;;;;;5552438;25;20456;-76
2024/04/14 02:48:21;;;;;;;55.22;3.35;;;15.90;85.30;;;;;;5551466;25;20394;-76
2024/04/14 02:50:47;;;;;;;54.50;3.95;;;15.90;85.20;;;;;;5555836;25;19997;-75
2024/04/14 02:53:13;;;;;;;116.25;4.75;;;15.80;85.00;;;;;;5544295;25;20036;-76
2024/04/14 02:55:39;;;;;;;12.68;1.95;;;15.80;84.70;;;;;;5555519;25;19997;-75
2024/04/14 02:58:06;;;;;;;6.60;1.25;;;15.80;84.90;;;;;;5542766;25;20436;-76
2024/04/14 03:00:32;;;;;;;53.38;3.33;;;15.80;84.90;;;;;;5552064;25;20436;-76
2024/04/14 03:02:58;;;;;;;12.75;2.03;;;15.80;85.00;;;;;;5540628;25;20432;-76
2024/04/14 03:05:25;;;;;;;13.98;2.22;;;15.70;84.20;;;;;;5526844;25;20000;-76
2024/04/14 03:07:51;;;;;;;9.52;1.63;;;15.70;84.10;;;;;;5548484;25;19991;-76
2024/04/14 03:10:17;;;;;;;8.68;1.98;;;15.70;84.30;;;;;;5550545;25;20004;-76
2024/04/14 03:12:44;;;;;;;58.38;3.40;;;15.80;84.10;;;;;;5552265;25;20025;-76
2024/04/14 03:15:10;;;;;;;8.77;1.73;;;15.70;84.10;;;;;;5554982;25;20003;-75
2024/04/14 03:17:36;;;;;;;61.03;4.70;;;15.70;84.30;;;;;;5555074;25;19993;-76
2024/04/14 03:20:01;;;;;;;56.95;3.72;;;15.70;83.90;;;;;;5556058;25;20011;-75
2024/04/14 03:22:27;;;;;;;9.63;1.58;;;15.60;84.20;;;;;;5541622;25;20001;-76
2024/04/14 03:24:53;;;;;;;10.45;1.38;;;15.60;84.30;;;;;;5539523;25;20005;-76
2024/04/14 03:27:18;;;;;;;51.10;5.50;;;15.60;84.50;;;;;;5551060;25;20104;-76
2024/04/14 03:29:47;;;;;;;10.60;1.70;;;15.50;84.20;;;;;;5538183;25;19993;-76
2024/04/14 03:32:14;;;;;;;53.17;4.47;;;15.50;83.90;;;;;;5556691;25;19997;-76
2024/04/14 03:34:44;;;;;;;53.20;3.92;;;15.40;84.10;;;;;;5546991;25;20066;-76
2024/04/14 03:37:10;;;;;;;12.70;2.05;;;15.30;83.90;;;;;;5543640;25;20000;-76
2024/04/14 03:39:37;;;;;;;13.85;2.42;;;15.30;83.90;;;;;;5556645;25;19996;-76
2024/04/14 03:42:03;;;;;;;40.97;3.42;;;15.30;83.80;;;;;;5538277;25;19997;-76
2024/04/14 03:44:30;;;;;;;69.30;3.72;;;15.20;84.00;;;;;;5530594;25;20007;-76
2024/04/14 03:46:56;;;;;;;9.93;1.60;;;15.20;84.30;;;;;;5531265;25;20042;-76
2024/04/14 03:49:21;;;;;;;12.48;1.63;;;15.20;84.40;;;;;;5538656;25;19997;-75
2024/04/14 03:51:49;;;;;;;82.40;4.47;;;15.20;84.40;;;;;;5528840;25;19997;-76
2024/04/14 03:54:15;;;;;;;43.90;3.47;;;15.20;83.70;;;;;;5535581;25;20072;-76
2024/04/14 03:56:40;;;;;;;55.47;3.17;;;15.10;83.90;;;;;;5539150;25;19997;-75
2024/04/14 03:59:06;;;;;;;12.35;1.50;;;15.10;84.00;;;;;;5547914;25;20320;-76
2024/04/14 04:01:33;;;;;;;175.30;42.58;;;15.10;83.90;;;;;;5533707;25;20858;-75
2024/04/14 04:03:58;;;;;;;12.10;2.35;;;15.10;83.80;;;;;;5551835;25;20009;-76
2024/04/14 04:06:24;;;;;;;44.85;3.92;;;15.10;83.30;;;;;;5520462;25;20008;-76
2024/04/14 04:08:50;;;;;;;4.55;1.77;;;15.00;82.60;;;;;;5542110;25;20016;-76
2024/04/14 04:11:17;;;;;;;6.70;1.48;;;15.10;82.80;;;;;;5540567;25;20001;-75
2024/04/14 04:13:43;;;;;;;12.38;1.90;;;15.00;82.50;;;;;;5522795;25;20733;-75
2024/04/14 04:16:09;;;;;;;9.50;2.00;;;15.10;82.50;;;;;;5544770;25;20001;-75
2024/04/14 04:18:35;;;;;;;11.07;1.50;;;15.00;82.50;;;;;;5547653;25;20030;-75
2024/04/14 04:21:06;;;;;;;8.35;1.33;;;15.00;82.70;;;;;;5522375;25;20012;-75
2024/04/14 04:23:32;;;;;;;60.13;3.33;;;15.00;83.30;;;;;;5550100;25;19997;-76
2024/04/14 04:25:59;;;;;;;8.95;1.67;;;14.90;83.60;;;;;;5519014;25;20008;-76
2024/04/14 04:28:30;;;;;;;14.25;2.00;;;14.90;83.60;;;;;;5536621;25;20009;-76
2024/04/14 04:30:56;;;;;;;53.33;4.45;;;14.90;83.60;;;;;;5521572;25;20002;-76
2024/04/14 04:33:24;;;;;;;8.48;1.33;;;14.80;83.50;;;;;;5528038;25;20013;-76
2024/04/14 04:35:54;;;;;;;44.83;4.63;;;14.90;83.60;;;;;;5533235;25;20065;-76
2024/04/14 04:38:23;;;;;;;5.22;1.42;;;14.80;83.70;;;;;;5539267;25;20462;-75
2024/04/14 04:40:50;;;;;;;64.03;3.20;;;14.70;83.80;;;;;;5550885;25;20079;-76
2024/04/14 04:43:15;;;;;;;223.23;23.00;;;14.70;83.80;;;;;;5531480;25;20464;-75
2024/04/14 04:45:41;;;;;;;182.73;14.98;;;14.60;83.70;;;;;;5543696;25;20020;-75
2024/04/14 04:48:07;;;;;;;56.03;3.03;;;14.60;83.70;;;;;;5537693;25;19997;-76
2024/04/14 04:50:33;;;;;;;41.28;4.47;;;14.50;84.00;;;;;;5522813;25;20047;-76
2024/04/14 04:52:59;;;;;;;798.72;49.03;;;14.40;84.10;;;;;;5545963;25;19996;-76
2024/04/14 04:55:25;;;;;;;121.65;25.50;;;14.30;84.30;;;;;;5526316;25;20012;-75
2024/04/14 04:57:51;;;;;;;125.07;10.82;;;14.30;84.40;;;;;;5528492;25;20001;-75
2024/04/14 05:00:16;;;;;;;75.68;6.53;;;14.20;84.60;;;;;;5549655;25;20011;-76
2024/04/14 05:02:42;;;;;;;116.90;6.40;;;14.20;84.60;;;;;;5533577;25;20360;-75
2024/04/14 05:05:08;;;;;;;39.40;4.25;;;14.20;84.90;;;;;;5541337;25;19997;-75
2024/04/14 05:07:33;;;;;;;145.68;18.40;;;14.10;84.80;;;;;;5547945;25;20011;-75
2024/04/14 05:09:59;;;;;;;43.30;3.75;;;14.10;85.10;;;;;;5553590;25;20000;-76
2024/04/14 05:12:25;;;;;;;42.85;2.67;;;14.10;85.20;;;;;;5549854;25;20004;-76
2024/04/14 05:14:50;;;;;;;37.85;3.50;;;14.00;85.50;;;;;;5552882;25;20013;-76
2024/04/14 05:17:16;;;;;;;52.67;4.93;;;14.00;85.20;;;;;;5534261;25;20005;-76
2024/04/14 05:19:42;;;;;;;118.53;8.60;;;14.00;85.30;;;;;;5549665;25;20041;-75
2024/04/14 05:22:07;;;;;;;44.10;4.35;;;14.00;85.60;;;;;;5549970;25;20077;-75
2024/04/14 05:24:33;;;;;;;38.08;3.13;;;13.90;85.60;;;;;;5540528;25;20020;-76
2024/04/14 05:26:59;;;;;;;56.53;3.65;;;13.90;85.80;;;;;;5528796;25;20001;-75
2024/04/14 05:29:27;;;;;;;12.48;1.52;;;13.90;86.00;;;;;;5539159;25;19997;-76
2024/04/14 05:31:52;;;;;;;210.90;20.35;;;13.80;86.00;;;;;;5544993;25;20449;-76
2024/04/14 05:34:18;;;;;;;306.10;35.97;;;13.80;86.10;;;;;;5538854;25;20009;-76
2024/04/14 05:36:45;;;;;;;256.05;16.77;;;13.80;86.10;;;;;;5534643;25;20449;-75
2024/04/14 05:39:10;;;;;;;7.82;1.55;;;13.80;86.40;;;;;;5528126;25;19997;-76
2024/04/14 05:41:36;;;;;;;135.43;6.57;;;13.80;86.40;;;;;;5545450;25;20023;-75
2024/04/14 05:44:02;;;;;;;245.60;28.17;;;13.80;86.50;;;;;;5554477;25;19997;-76
2024/04/14 05:46:28;;;;;;;31.60;4.70;;;13.70;86.50;;;;;;5552641;25;20011;-75
2024/04/14 05:48:55;;;;;;;231.27;11.95;;;13.60;86.70;;;;;;5552208;25;20001;-76
2024/04/14 05:51:20;;;;;;;133.77;20.98;;;13.60;86.90;;;;;;5532548;25;20006;-76
2024/04/14 05:53:48;;;;;;;100.50;9.27;;;13.50;87.00;;;;;;5526535;25;20330;-76
2024/04/14 05:56:14;;;;;;;128.50;17.83;;;13.50;87.10;;;;;;5518933;25;20037;-75
2024/04/14 05:58:40;;;;;;;59.95;2.92;;;13.50;87.20;;;;;;5538039;25;20029;-76
2024/04/14 06:01:09;;;;;;;312.60;55.40;;;13.50;87.30;;;;;;5543699;25;20013;-76
2024/04/14 06:03:35;;;;;;;388.73;28.40;;;13.50;87.20;;;;;;5556819;25;20009;-76
2024/04/14 06:06:01;;;;;;;51.50;5.15;;;13.50;87.20;;;;;;5548322;25;20064;-76
2024/04/14 06:08:27;;;;;;;49.92;12.98;;;13.50;87.30;;;;;;5555405;25;20012;-75
2024/04/14 06:10:52;;;;;;;45.63;4.07;;;13.50;87.30;;;;;;5546678;25;20460;-75
2024/04/14 06:13:18;;;;;;;202.93;17.15;;;13.50;87.50;;;;;;5547282;25;20002;-75
2024/04/14 06:15:44;;;;;;;276.48;13.68;;;13.40;87.50;;;;;;5543394;25;19997;-75
2024/04/14 06:18:10;;;;;;;262.10;34.00;;;13.40;87.50;;;;;;5547501;25;20452;-77
2024/04/14 06:20:39;;;;;;;231.73;28.67;;;13.40;87.90;;;;;;5545152;25;19996;-75
2024/04/14 06:23:06;;;;;;;174.13;33.75;;;13.40;88.40;;;;;;5550113;25;20222;-76
2024/04/14 06:25:32;;;;;;;296.70;43.80;;;13.40;88.20;;;;;;5542697;25;20009;-79
2024/04/14 06:27:58;;;;;;;272.23;15.07;;;13.40;88.50;;;;;;5551217;25;19996;-81
2024/04/14 06:30:24;;;;;;;190.48;13.98;;;13.40;88.60;;;;;;5549572;25;20012;-77
2024/04/14 06:32:50;;;;;;;276.15;20.05;;;13.40;88.50;;;;;;5548919;25;20039;-76
2024/04/14 06:35:16;;;;;;;318.95;19.60;;;13.40;88.40;;;;;;5548544;25;20004;-76
2024/04/14 06:37:42;;;;;;;90.45;8.45;;;13.40;88.50;;;;;;5545587;25;20126;-76
2024/04/14 06:40:09;;;;;;;200.25;7.38;;;13.40;88.70;;;;;;5544813;25;20038;-76
2024/04/14 06:42:34;;;;;;;346.20;19.38;;;13.40;88.90;;;;;;5549774;25;20054;-76
2024/04/14 06:45:00;;;;;;;52.30;1.42;;;13.40;89.00;;;;;;5549890;25;19997;-76
2024/04/14 06:47:26;;;;;;;100.55;11.55;;;13.40;89.00;;;;;;5547409;25;20005;-76
2024/04/14 06:49:51;;;;;;;337.20;18.10;;;13.40;89.30;;;;;;5547450;25;20001;-76
2024/04/14 06:52:17;;;;;;;189.05;12.95;;;13.40;88.70;;;;;;5547795;25;20007;-76
2024/04/14 06:54:43;;;;;;;99.38;4.85;;;13.40;88.60;;;;;;5549658;25;20011;-76
2024/04/14 06:57:08;;;;;;;179.32;13.27;;;13.30;88.60;;;;;;5549163;25;20500;-76
2024/04/14 06:59:35;;;;;;;47.50;3.40;;;13.40;88.90;;;;;;5545109;25;20004;-76
2024/04/14 07:02:00;;;;;;;253.40;27.10;;;13.30;88.70;;;;;;5550098;25;20001;-76
2024/04/14 07:04:26;;;;;;;104.88;6.03;;;13.30;88.80;;;;;;5547297;25;20739;-76
2024/04/14 07:06:52;;;;;;;313.73;21.35;;;13.30;89.00;;;;;;5549730;25;20101;-76
2024/04/14 07:09:17;;;;;;;134.35;16.98;;;13.30;89.00;;;;;;5547732;25;20037;-76
2024/04/14 07:11:43;;;;;;;139.25;13.75;;;13.30;89.40;;;;;;5549935;25;20408;-76
2024/04/14 07:14:09;;;;;;;387.30;12.68;;;13.30;89.30;;;;;;5542967;25;20029;-76
2024/04/14 07:16:35;;;;;;;50.42;2.78;;;13.30;89.70;;;;;;5548967;25;20005;-76
2024/04/14 07:19:00;;;;;;;268.38;24.45;;;13.40;89.60;;;;;;5545920;25;20090;-76
2024/04/14 07:21:26;;;;;;;161.77;6.07;;;13.40;89.50;;;;;;5550445;25;20013;-76
2024/04/14 07:23:52;;;;;;;186.82;7.80;;;13.30;89.40;;;;;;5544818;25;20420;-76
2024/04/14 07:26:17;;;;;;;92.13;13.60;;;13.30;89.60;;;;;;5546147;25;20008;-76
2024/04/14 07:28:43;;;;;;;101.80;3.85;;;13.40;89.60;;;;;;5542590;25;20004;-77
2024/04/14 07:31:08;;;;;;;119.47;6.13;;;13.40;89.60;;;;;;5547738;25;20328;-79
2024/04/14 07:33:38;;;;;;;110.72;10.05;;;13.40;88.80;;;;;;5544091;25;20076;-76
2024/04/14 07:36:04;;;;;;;260.95;24.40;;;13.50;88.40;;;;;;5544702;25;20020;-77
2024/04/14 07:38:29;;;;;;;361.15;23.45;;;13.50;88.00;;;;;;5548234;25;20464;-76
2024/04/14 07:40:55;;;;;;;48.72;3.42;;;13.50;88.30;;;;;;5545052;25;20011;-77
2024/04/14 07:43:21;;;;;;;3.80;1.35;;;13.50;87.70;;;;;;5546472;25;20010;-76
2024/04/14 07:45:46;;;;;;;6.57;1.35;;;13.60;87.40;;;;;;5547013;25;20036;-74
2024/04/14 07:48:12;;;;;;;280.63;24.38;;;13.60;87.20;;;;;;5545866;25;20011;-74
2024/04/14 07:50:42;;;;;;;229.63;12.15;;;13.60;87.40;;;;;;5545802;25;20028;-74
2024/04/14 07:53:08;;;;;;;126.68;6.68;;;13.60;87.10;;;;;;5549273;25;20006;-84
2024/04/14 07:55:34;;;;;;;13.70;1.50;;;13.60;86.50;;;;;;5546614;25;20462;-75
2024/04/14 07:57:59;;;;;;;561.13;29.50;;;13.60;86.10;;;;;;5546975;25;20016;-75
2024/04/14 08:00:25;;;;;;;2.55;1.23;;;13.60;86.20;;;;;;5543605;25;20016;-76
2024/04/14 08:02:50;;;;;;;79.65;4.53;;;13.60;86.00;;;;;;5542003;25;20002;-76
2024/04/14 08:05:16;;;;;;;353.02;10.40;;;13.50;85.80;;;;;;5548097;25;20440;-76
2024/04/14 08:07:42;;;;;;;92.50;3.70;;;13.50;86.10;;;;;;5544498;25;20013;-77
2024/04/14 08:10:07;;;;;;;4.18;1.17;;;13.60;85.90;;;;;;5546743;25;20028;-77
2024/04/14 08:12:33;;;;;;;182.27;6.57;;;13.60;85.50;;;;;;5545483;25;20548;-77
2024/04/14 08:14:58;;;;;;;285.40;22.15;;;13.50;86.10;;;;;;5547250;25;19996;-76
2024/04/14 08:17:24;;;;;;;81.53;2.80;;;13.60;85.70;;;;;;5547351;25;19992;-76
2024/04/14 08:19:50;;;;;;;146.88;8.25;;;13.60;85.50;;;;;;5546823;25;19993;-75
2024/04/14 08:22:15;;;;;;;113.28;4.35;;;13.60;85.50;;;;;;5547899;25;20392;-76
2024/04/14 08:24:41;;;;;;;37.90;2.35;;;13.70;86.10;;;;;;5540993;25;19998;-81
2024/04/14 08:27:06;;;;;;;6.32;1.60;;;13.70;85.70;;;;;;5546204;25;20008;-79
2024/04/14 08:29:32;;;;;;;390.48;19.95;;;13.80;85.40;;;;;;5547474;25;20001;-75
2024/04/14 08:31:59;;;;;;;22.27;2.03;;;13.80;85.50;;;;;;5544892;25;20347;-77
2024/04/14 08:34:25;;;;;;;106.32;3.25;;;13.80;85.30;;;;;;5548816;25;20077;-77
2024/04/14 08:36:50;;;;;;;173.25;10.23;;;13.80;85.50;;;;;;5544907;25;19996;-79
2024/04/14 08:39:16;;;;;;;298.85;10.20;;;13.80;85.70;;;;;;5546005;25;19993;-75
2024/04/14 08:41:43;;;;;;;203.00;29.88;;;13.80;85.50;;;;;;5550326;25;20109;-78
2024/04/14 08:44:13;;;;;;;324.40;11.82;;;13.90;85.40;;;;;;5546711;25;20274;-79
2024/04/14 08:46:41;;;;;;;94.68;4.45;;;13.80;85.30;;;;;;5546432;25;20398;-82
2024/04/14 08:49:07;;;;;;;2.60;0.85;;;13.90;84.60;;;;;;5546037;25;19992;-77
2024/04/14 08:51:34;;;;;;;127.05;3.70;;;13.90;84.10;;;;;;5547769;25;20016;-77
2024/04/14 08:54:00;;;;;;;390.63;21.08;;;13.90;82.80;;;;;;5544240;25;20071;-78
2024/04/14 08:56:27;;;;;;;262.80;6.95;;;13.90;82.80;;;;;;5538924;25;19994;-78
2024/04/14 08:59:12;;;;;;;391.48;8.68;;;13.90;81.60;;;;;;5544100;25;20150;-77
2024/04/14 09:01:38;;;;;;;301.58;12.60;;;13.90;80.90;;;;;;5551011;25;20348;-77
2024/04/14 09:04:05;;;;;;;2.10;0.90;;;13.90;80.70;;;;;;5553572;25;20004;-77
2024/04/14 09:06:32;;;;;;;42.85;6.32;;;13.80;79.30;;;;;;5550540;25;20013;-77
2024/04/14 09:08:59;;;;;;;203.18;15.48;;;13.70;79.70;;;;;;5548059;25;19997;-77
2024/04/14 09:11:24;;;;;;;97.57;3.35;;;13.70;78.90;;;;;;5547083;25;20064;-77
2024/04/14 09:13:50;;;;;;;85.72;12.30;;;13.70;80.40;;;;;;5543605;25;20013;-78
2024/04/14 09:16:19;;;;;;;267.50;7.13;;;13.70;80.50;;;;;;5536695;25;20091;-77
2024/04/14 09:18:45;;;;;;;80.55;6.45;;;13.70;80.60;;;;;;5544820;25;20023;-79
2024/04/14 09:21:10;;;;;;;88.15;2.60;;;13.70;80.50;;;;;;5540682;25;19997;-77
2024/04/14 09:23:36;;;;;;;114.30;4.78;;;13.80;80.40;;;;;;5546360;25;20004;-77
2024/04/14 09:26:04;;;;;;;94.80;3.60;;;13.80;80.50;;;;;;5545499;25;20069;-77
2024/04/14 09:28:30;;;;;;;149.38;6.43;;;13.80;80.80;;;;;;5544590;25;20019;-77
2024/04/14 09:30:56;;;;;;;155.52;13.05;;;13.90;80.60;;;;;;5542247;25;20371;-77
2024/04/14 09:33:23;;;;;;;237.88;13.55;;;13.80;80.50;;;;;;5547821;25;20001;-77
2024/04/14 09:35:49;;;;;;;197.68;30.50;;;13.90;80.50;;;;;;5543043;25;20032;-75
2024/04/14 09:38:17;;;;;;;74.75;4.38;;;14.00;80.90;;;;;;5545686;25;20013;-75
2024/04/14 09:40:44;;;;;;;78.40;3.75;;;14.00;81.40;;;;;;5544334;25;20471;-77
2024/04/14 09:43:10;;;;;;;176.15;9.68;;;14.00;81.60;;;;;;5544386;25;19997;-77
2024/04/14 09:45:37;;;;;;;119.53;3.88;;;14.10;81.40;;;;;;5535147;25;20002;-77
2024/04/14 09:48:04;;;;;;;2.85;1.27;;;14.20;81.30;;;;;;5534037;25;20012;-79
2024/04/14 09:50:30;;;;;;;154.00;7.57;;;14.10;80.80;;;;;;5529097;25;20007;-77
2024/04/14 09:52:57;;;;;;;264.80;20.02;;;14.20;80.50;;;;;;5534432;25;20005;-78
2024/04/14 09:55:26;;;;;;;122.55;3.45;;;14.20;81.00;;;;;;5530479;25;20013;-77
2024/04/14 09:57:51;;;;;;;6.22;1.95;;;14.20;81.10;;;;;;5554717;25;20072;-78
2024/04/14 10:00:18;;;;;;;84.50;3.33;;;14.20;81.00;;;;;;5546874;25;20029;-78
2024/04/14 10:02:53;;;;;;;76.55;5.13;;;14.20;81.00;;;;;;5532257;25;20008;-78
2024/04/14 10:05:21;;;;;;;9.55;1.58;;;14.20;79.60;;;;;;5547258;25;20013;-80
2024/04/14 10:07:48;;;;;;;3.80;1.25;;;14.10;78.80;;;;;;5526777;25;19996;-78
2024/04/14 10:10:14;;;;;;;3.97;1.25;;;14.10;79.80;;;;;;5546868;25;19997;-78
2024/04/14 10:12:40;;;;;;;126.10;4.35;;;14.10;80.60;;;;;;5535062;25;20069;-78
2024/04/14 10:15:07;;;;;;;253.73;10.27;;;14.20;80.80;;;;;;5528520;25;20008;-78
2024/04/14 10:17:33;;;;;;;207.32;5.25;;;14.20;81.60;;;;;;5548035;25;20004;-78
2024/04/14 10:20:03;;;;;;;2.50;0.80;;;14.30;80.30;;;;;;5536499;25;20012;-78
2024/04/14 10:22:40;;;;;;;197.70;10.35;;;14.40;80.00;;;;;;5516689;25;20012;-78
2024/04/14 10:25:20;;;;;;;101.25;5.05;;;14.40;80.10;;;;;;5516695;25;19994;-78
2024/04/14 10:27:46;;;;;;;387.30;9.52;;;14.40;79.80;;;;;;5549374;25;20424;-78
2024/04/14 10:30:19;;;;;;;6.88;1.55;;;14.50;79.00;;;;;;5541999;25;20008;-75
2024/04/14 10:32:45;;;;;;;285.73;5.25;;;14.60;79.40;;;;;;5548399;25;20073;-78
2024/04/14 10:35:15;;;;;;;4.55;1.55;;;14.50;78.90;;;;;;5544739;25;20009;-77
2024/04/14 10:37:40;;;;;;;192.45;6.65;;;14.50;79.20;;;;;;5531809;25;20001;-76
2024/04/14 10:40:07;;;;;;;370.33;36.33;;;14.70;79.60;;;;;;5546305;25;20468;-76
2024/04/14 10:42:36;;;;;;;195.57;5.05;;;14.60;80.60;;;;;;5535387;25;20009;-73
2024/04/14 10:45:02;;;;;;;221.52;7.47;;;14.70;80.90;;;;;;5540902;25;20001;-79
2024/04/14 10:47:29;;;;;;;4.13;1.38;;;14.80;80.80;;;;;;5537867;25;20001;-74
2024/04/14 10:49:55;;;;;;;101.15;4.30;;;14.90;80.60;;;;;;5544372;25;19997;-76
2024/04/14 10:52:21;;;;;;;21.67;3.60;;;14.90;80.30;;;;;;5540587;25;20001;-75
2024/04/14 10:54:46;;;;;;;142.15;4.47;;;15.00;80.40;;;;;;5539733;25;20007;-74
2024/04/14 10:57:13;;;;;;;93.75;16.42;;;15.10;80.90;;;;;;5553874;25;20088;-74
2024/04/14 10:59:39;;;;;;;136.40;6.80;;;15.10;81.40;;;;;;5540841;25;20001;-75
2024/04/14 11:02:05;;;;;;;434.73;29.17;;;15.10;80.90;;;;;;5536387;25;20005;-75
2024/04/14 11:04:32;;;;;;;49.22;2.30;;;15.20;80.80;;;;;;5529600;25;20001;-74
2024/04/14 11:07:01;;;;;;;35.83;1.98;;;15.20;81.00;;;;;;5523374;25;20065;-74
2024/04/14 11:09:28;;;;;;;108.32;4.07;;;15.30;80.10;;;;;;5544029;25;20099;-74
2024/04/14 11:11:55;;;;;;;16.98;1.98;;;15.30;78.90;;;;;;5525079;25;20016;-74
2024/04/14 11:14:22;;;;;;;376.38;7.78;;;15.30;78.10;;;;;;5525410;25;20001;-74
2024/04/14 11:16:48;;;;;;;233.73;12.88;;;15.20;78.00;;;;;;5554251;25;20062;-74
2024/04/14 11:19:14;;;;;;;172.35;14.45;;;15.20;79.10;;;;;;5539546;25;20001;-74
2024/04/14 11:21:40;;;;;;;266.63;8.65;;;15.20;80.40;;;;;;5551780;25;20331;-74
2024/04/14 11:24:09;;;;;;;127.97;6.10;;;15.30;80.80;;;;;;5545985;25;20460;-73
2024/04/14 11:26:35;;;;;;;198.70;12.80;;;15.40;81.50;;;;;;5538210;25;19998;-73
2024/04/14 11:29:01;;;;;;;8.95;1.92;;;15.40;81.30;;;;;;5527789;25;20001;-74
2024/04/14 11:31:28;;;;;;;246.85;6.57;;;15.40;80.10;;;;;;5543921;25;20321;-74
2024/04/14 11:33:58;;;;;;;216.85;9.90;;;15.50;79.70;;;;;;5547321;25;20824;-75
2024/04/14 11:36:31;;;;;;;515.95;49.28;;;15.50;81.00;;;;;;5555529;25;20037;-74
2024/04/14 11:39:00;;;;;;;311.20;15.05;;;15.50;80.40;;;;;;5539146;25;20000;-74
2024/04/14 11:41:25;;;;;;;10.43;1.80;;;15.60;79.90;;;;;;5542942;25;20520;-74
2024/04/14 11:43:51;;;;;;;4.85;1.77;;;15.60;79.90;;;;;;5548709;25;20004;-75
2024/04/14 11:46:18;;;;;;;114.07;6.53;;;15.60;78.40;;;;;;5551151;25;20004;-74
2024/04/14 11:48:44;;;;;;;101.80;5.53;;;15.60;79.00;;;;;;5547757;25;19997;-74
2024/04/14 11:51:10;;;;;;;69.35;2.95;;;15.70;79.50;;;;;;5541873;25;20325;-76
2024/04/14 11:53:37;;;;;;;240.25;12.70;;;15.70;79.00;;;;;;5551837;25;20008;-74
2024/04/14 11:56:02;;;;;;;163.98;12.35;;;15.70;79.70;;;;;;5543803;25;20012;-75
2024/04/14 11:58:28;;;;;;;73.72;7.07;;;15.80;79.40;;;;;;5549141;25;20080;-78
2024/04/14 12:00:54;;;;;;;21.08;3.42;;;15.80;78.00;;;;;;5542516;25;19996;-74
2024/04/14 12:03:20;;;;;;;322.38;9.73;;;15.80;79.10;;;;;;5544025;25;20444;-77
2024/04/14 12:05:46;;;;;;;118.55;15.13;;;15.80;80.20;;;;;;5545375;25;20016;-77
2024/04/14 12:08:12;;;;;;;132.57;8.05;;;15.80;79.80;;;;;;5546575;25;20005;-77
2024/04/14 12:10:37;;;;;;;133.23;12.38;;;15.80;80.20;;;;;;5546372;25;20068;-77
2024/04/14 12:13:04;;;;;;;89.75;4.20;;;15.90;79.50;;;;;;5545575;25;20450;-77
2024/04/14 12:15:31;;;;;;;133.57;13.63;;;15.90;79.50;;;;;;5546692;25;20008;-77
2024/04/14 12:17:56;;;;;;;4.97;0.98;;;15.90;79.60;;;;;;5546363;25;20467;-77
2024/04/14 12:20:22;;;;;;;307.85;30.60;;;15.90;79.70;;;;;;5547518;25;20012;-77
2024/04/14 12:22:47;;;;;;;254.63;13.63;;;15.90;78.50;;;;;;5543732;25;20069;-77
2024/04/14 12:25:13;;;;;;;45.60;3.83;;;15.90;79.30;;;;;;5546745;25;20000;-77
2024/04/14 12:27:39;;;;;;;228.38;10.57;;;16.00;79.90;;;;;;5543292;25;20040;-77